Time;durP1;ratioP1;P1;durP2;ratioP2;P2;SDS_P1;SDS_P2;PMS_P1;PMS_P2;Temp;Humidity;BMP_temperature;BMP_pressure;BME280_temperature;BME280_humidity;BME280_pressure;Samples;Min_cycle;Max_cycle;Signal;HPM_P1;HPM_P2
2023/04/05 00:00:31;;;;;;;8.48;5.93;;;;;;;6.51;50.23;101076.94;4953364;28;20043;-71
2023/04/05 00:03:01;;;;;;;7.80;5.78;;;;;;;6.69;50.91;101074.03;4953093;29;20047;-71
2023/04/05 00:05:29;;;;;;;9.10;6.20;;;;;;;6.66;50.83;101077.25;4965627;28;20412;-72
2023/04/05 00:07:59;;;;;;;7.95;5.60;;;;;;;6.78;49.23;101079.09;4952910;28;20043;-71
2023/04/05 00:10:28;;;;;;;8.80;5.47;;;;;;;6.64;49.33;101076.66;4953157;28;20483;-71
2023/04/05 00:12:56;;;;;;;10.52;5.45;;;;;;;6.74;48.99;101076.03;4953074;29;20043;-71
2023/04/05 00:15:26;;;;;;;9.20;5.60;;;;;;;6.86;49.66;101081.44;4968211;28;20047;-71
2023/04/05 00:17:54;;;;;;;11.10;5.93;;;;;;;6.97;48.15;101080.56;4971791;28;20050;-71
2023/04/05 00:20:22;;;;;;;8.80;6.10;;;;;;;7.07;48.80;101070.94;4972050;28;20098;-71
2023/04/05 00:22:50;;;;;;;12.27;5.75;;;;;;;7.00;48.02;101079.25;4964012;28;20047;-71
2023/04/05 00:25:18;;;;;;;9.35;5.63;;;;;;;6.92;48.34;101077.75;4951849;29;20047;-71
2023/04/05 00:27:46;;;;;;;6.57;5.05;;;;;;;6.92;47.16;101088.63;4963958;28;20505;-71
2023/04/05 00:30:19;;;;;;;11.27;5.75;;;;;;;6.86;48.72;101084.97;4971872;28;20035;-71
2023/04/05 00:32:51;;;;;;;10.30;4.93;;;;;;;6.95;48.41;101081.88;4972228;28;20066;-71
2023/04/05 00:35:19;;;;;;;10.15;6.00;;;;;;;7.05;48.04;101081.25;4935030;29;20521;-71
2023/04/05 00:37:47;;;;;;;6.43;4.95;;;;;;;7.15;47.68;101081.44;4938447;28;20486;-71
2023/04/05 00:40:15;;;;;;;10.10;5.65;;;;;;;7.11;48.78;101083.00;4971887;28;20050;-71
2023/04/05 00:42:43;;;;;;;9.32;5.15;;;;;;;7.22;47.26;101086.72;4957996;28;20060;-71
2023/04/05 00:45:11;;;;;;;9.50;5.38;;;;;;;7.38;47.09;101079.66;4959963;28;20034;-71
2023/04/05 00:47:44;;;;;;;7.40;4.95;;;;;;;7.39;46.79;101078.59;4971776;28;20043;-71
2023/04/05 00:50:12;;;;;;;8.98;4.63;;;;;;;7.25;45.99;101073.44;4952269;28;20054;-71
2023/04/05 00:52:40;;;;;;;6.57;4.78;;;;;;;7.28;45.81;101071.31;4958689;28;20047;-71
2023/04/05 00:55:09;;;;;;;6.35;4.88;;;;;;;7.38;45.01;101074.22;4974243;28;20132;-71
2023/04/05 00:57:38;;;;;;;7.65;4.72;;;;;;;7.31;46.62;101062.63;4959530;28;20055;-71
2023/04/05 01:00:08;;;;;;;6.35;3.72;;;;;;;7.31;45.04;101068.09;4956485;29;20048;-71
2023/04/05 01:02:44;;;;;;;9.23;4.28;;;;;;;7.18;45.09;101067.31;4956404;29;20046;-71
2023/04/05 01:05:37;;;;;;;6.25;3.65;;;;;;;7.45;44.61;101071.31;4955251;29;20050;-71
2023/04/05 01:08:23;;;;;;;4.60;3.97;;;;;;;7.26;44.60;101063.38;4919835;29;20059;-71
2023/04/05 01:10:57;;;;;;;5.72;3.95;;;;;;;7.22;44.30;101057.59;4955068;29;20502;-71
2023/04/05 01:13:25;;;;;;;;;;;;;;;7.30;45.27;101069.16;4956796;29;20069;-71
2023/04/05 01:15:53;;;;;;;5.82;4.03;;;;;;;7.22;44.30;101059.50;4956159;29;19929;-71
2023/04/05 01:18:23;;;;;;;6.57;4.20;;;;;;;7.09;45.22;101066.09;4958136;28;20051;-71
2023/04/05 01:21:02;;;;;;;6.22;3.80;;;;;;;6.88;45.47;101065.69;4975458;28;20394;-71
2023/04/05 01:23:58;;;;;;;7.00;3.50;;;;;;;6.94;44.47;101062.00;4975299;28;20051;-71
2023/04/05 01:26:46;;;;;;;4.03;3.20;;;;;;;6.76;44.69;101073.91;4975264;28;20908;-71
2023/04/05 01:29:52;;;;;;;6.30;3.58;;;;;;;7.05;43.25;101064.91;4944969;28;20055;-71
2023/04/05 01:32:38;;;;;;;6.93;3.63;;;;;;;7.02;42.88;101065.38;4974440;28;20062;-71
2023/04/05 01:35:43;;;;;;;5.47;3.10;;;;;;;6.96;43.98;101064.47;4974712;28;20047;-72
2023/04/05 01:38:18;;;;;;;4.53;3.63;;;;;;;7.03;44.13;101056.19;4970806;28;20061;-71
2023/04/05 01:40:46;;;;;;;3.53;3.22;;;;;;;7.10;43.81;101056.84;4994468;28;20470;-71
2023/04/05 01:43:15;;;;;;;5.97;3.70;;;;;;;6.97;43.14;101058.81;4994473;28;20058;-71
2023/04/05 01:45:44;;;;;;;6.30;3.40;;;;;;;6.86;43.22;101057.75;4981953;28;20043;-71
2023/04/05 01:48:13;;;;;;;3.90;3.03;;;;;;;6.59;43.42;101055.63;4957228;28;20528;-71
2023/04/05 01:50:42;;;;;;;5.00;3.40;;;;;;;6.77;43.82;101063.84;4975076;28;20035;-71
2023/04/05 01:53:10;;;;;;;5.75;3.65;;;;;;;6.79;44.99;101065.25;4957599;28;20050;-71
2023/04/05 01:55:38;;;;;;;4.45;3.45;;;;;;;6.58;44.42;101056.72;4973577;28;20050;-71
2023/04/05 01:58:08;;;;;;;5.38;3.40;;;;;;;6.66;44.42;101060.09;4973675;28;20058;-71
2023/04/05 02:00:36;;;;;;;4.72;3.58;;;;;;;6.67;45.02;101054.44;4957580;28;20375;-71
2023/04/05 02:03:04;;;;;;;6.95;3.45;;;;;;;6.71;44.13;101061.00;4973660;28;20066;-71
2023/04/05 02:05:32;;;;;;;5.57;3.72;;;;;;;6.62;44.53;101053.47;4957262;28;20039;-71
2023/04/05 02:08:00;;;;;;;5.93;3.90;;;;;;;6.59;44.85;101052.91;4974043;28;20047;-71
2023/04/05 02:10:27;;;;;;;7.65;3.80;;;;;;;6.59;45.21;101052.91;4974397;28;20055;-71
2023/04/05 02:12:55;;;;;;;8.30;3.90;;;;;;;6.56;45.86;101050.66;4957020;28;20043;-71
2023/04/05 02:15:23;;;;;;;5.13;4.00;;;;;;;6.59;45.61;101057.50;4973323;28;20050;-71
2023/04/05 02:17:52;;;;;;;6.82;3.45;;;;;;;6.58;45.97;101062.16;4972975;28;20393;-71
2023/04/05 02:20:21;;;;;;;7.40;4.10;;;;;;;6.61;46.31;101054.56;4957072;28;20402;-71
2023/04/05 02:22:50;;;;;;;7.97;4.40;;;;;;;6.52;46.35;101049.50;4974361;28;20046;-71
2023/04/05 02:25:18;;;;;;;9.25;4.20;;;;;;;6.49;47.68;101051.88;4972609;28;20069;-71
2023/04/05 02:27:47;;;;;;;6.13;4.10;;;;;;;6.45;47.79;101048.81;4974157;28;20051;-71
2023/04/05 02:30:15;;;;;;;5.53;4.10;;;;;;;6.50;47.42;101053.53;4956773;28;20054;-71
2023/04/05 02:32:44;;;;;;;6.63;4.07;;;;;;;6.39;47.84;101050.59;4974037;28;20051;-71
2023/04/05 02:35:12;;;;;;;5.75;3.80;;;;;;;6.33;47.71;101054.28;4972815;28;20509;-71
2023/04/05 02:37:40;;;;;;;11.75;4.32;;;;;;;6.42;48.84;101060.16;4973718;28;20069;-71
2023/04/05 02:40:12;;;;;;;8.98;4.07;;;;;;;6.51;48.93;101060.63;4956427;28;20050;-71
2023/04/05 02:42:40;;;;;;;6.07;3.58;;;;;;;6.47;46.69;101054.00;4973855;28;20047;-71
2023/04/05 02:45:08;;;;;;;5.75;4.07;;;;;;;6.36;47.59;101063.84;4968849;28;20553;-71
2023/04/05 02:47:36;;;;;;;7.90;4.00;;;;;;;6.45;48.08;101056.97;4972571;28;20047;-71
2023/04/05 02:50:05;;;;;;;6.38;3.95;;;;;;;6.43;47.85;101059.94;4972510;28;20054;-71
2023/04/05 02:52:39;;;;;;;6.35;3.92;;;;;;;6.50;47.54;101056.25;4972489;28;20053;-71
2023/04/05 02:55:07;;;;;;;8.02;4.18;;;;;;;6.51;46.77;101066.06;4956348;28;20046;-71
2023/04/05 02:57:36;;;;;;;4.75;3.45;;;;;;;6.72;45.34;101057.25;4956315;28;20051;-71
2023/04/05 03:00:16;;;;;;;6.13;3.20;;;;;;;6.70;45.76;101053.94;4972611;28;20047;-71
2023/04/05 03:02:44;;;;;;;6.53;3.65;;;;;;;6.81;46.54;101048.69;4973565;28;20051;-71
2023/04/05 03:05:12;;;;;;;5.10;3.10;;;;;;;6.69;45.28;101057.72;4971278;28;20062;-71
2023/04/05 03:07:45;;;;;;;4.07;2.92;;;;;;;6.77;45.26;101053.78;4972221;28;20054;-71
2023/04/05 03:10:17;;;;;;;5.93;3.03;;;;;;;6.78;45.40;101054.59;4972172;28;20047;-71
2023/04/05 03:12:50;;;;;;;3.45;2.55;;;;;;;6.81;44.57;101052.25;4957014;28;20054;-71
2023/04/05 03:15:22;;;;;;;5.82;3.17;;;;;;;6.82;45.01;101055.78;4971974;28;20446;-71
2023/04/05 03:17:50;;;;;;;5.65;2.88;;;;;;;6.91;44.72;101053.50;4972977;28;20054;-71
2023/04/05 03:20:18;;;;;;;4.70;2.75;;;;;;;6.96;44.88;101051.72;4971732;28;20038;-71
2023/04/05 03:22:46;;;;;;;4.22;3.00;;;;;;;7.05;44.33;101059.47;4972149;28;20043;-71
2023/04/05 03:25:16;;;;;;;2.80;2.50;;;;;;;7.00;44.49;101054.78;4982574;28;20090;-71
2023/04/05 03:27:47;;;;;;;3.35;2.75;;;;;;;6.79;44.66;101053.56;4958436;28;20062;-71
2023/04/05 03:30:17;;;;;;;5.20;2.67;;;;;;;6.92;44.75;101055.16;4992675;28;20050;-71
2023/04/05 03:32:52;;;;;;;4.30;3.25;;;;;;;7.06;44.56;101048.34;4975299;28;20046;-71
2023/04/05 03:35:40;;;;;;;5.70;3.20;;;;;;;7.18;43.67;101052.91;4991982;28;20058;-71
2023/04/05 03:38:11;;;;;;;3.20;2.65;;;;;;;7.21;44.33;101058.69;4991102;28;20043;-71
2023/04/05 03:40:47;;;;;;;4.95;3.03;;;;;;;7.15;43.54;101043.34;4975035;28;20393;-71
2023/04/05 03:43:15;;;;;;;5.10;2.83;;;;;;;7.28;43.55;101054.97;4974963;28;20497;-71
2023/04/05 03:45:43;;;;;;;3.25;2.30;;;;;;;7.45;42.65;101050.38;4963731;28;20049;-71
2023/04/05 03:48:11;;;;;;;4.68;2.88;;;;;;;7.32;43.66;101058.84;4971634;28;20047;-71
2023/04/05 03:50:39;;;;;;;3.90;2.60;;;;;;;7.21;43.44;101058.69;4972782;28;20074;-71
2023/04/05 03:53:07;;;;;;;8.88;2.80;;;;;;;7.20;43.63;101057.03;4971515;28;20051;-71
2023/04/05 03:55:35;;;;;;;3.33;2.50;;;;;;;7.32;43.22;101053.38;4971499;28;20051;-71
2023/04/05 03:58:05;;;;;;;5.00;2.95;;;;;;;7.36;42.93;101049.94;4971297;28;20050;-71
2023/04/05 04:00:35;;;;;;;3.72;2.20;;;;;;;7.23;43.99;101061.13;4969445;28;20054;-71
2023/04/05 04:03:20;;;;;;;;;;;;;;;7.37;42.59;101057.03;4954987;28;20042;-71
2023/04/05 04:05:51;;;;;;;6.20;2.80;;;;;;;7.48;42.76;101052.59;4938949;28;19922;-71
2023/04/05 04:08:20;;;;;;;4.20;2.58;;;;;;;7.57;42.71;101054.91;4971076;28;20465;-71
2023/04/05 04:10:49;;;;;;;3.65;2.80;;;;;;;7.36;43.76;101055.41;4955510;28;20057;-71
2023/04/05 04:13:21;;;;;;;3.20;2.28;;;;;;;7.49;43.05;101058.88;4972617;28;20494;-72
2023/04/05 04:15:58;;;;;;;8.15;2.70;;;;;;;7.50;43.96;101058.63;4955302;28;20054;-71
2023/04/05 04:18:45;;;;;;;4.30;2.30;;;;;;;7.52;43.21;101052.91;4972323;28;20066;-71
2023/04/05 04:21:27;;;;;;;8.30;3.03;;;;;;;7.47;43.38;101050.94;4955346;28;20038;-71
2023/04/05 04:24:18;;;;;;;6.22;2.95;;;;;;;7.53;44.66;101052.66;4951881;28;20070;-71
2023/04/05 04:26:57;;;;;;;7.75;3.22;;;;;;;7.43;45.72;101054.41;4937220;29;20594;-71
2023/04/05 04:29:45;;;;;;;3.60;2.85;;;;;;;7.41;43.62;101046.47;4953078;28;20055;-71
2023/04/05 04:32:25;;;;;;;6.20;2.63;;;;;;;7.35;44.42;101042.03;4956931;29;20051;-71
2023/04/05 04:35:27;;;;;;;4.95;2.97;;;;;;;7.29;43.84;101053.91;4914121;29;20067;-71
2023/04/05 04:38:09;;;;;;;5.57;3.05;;;;;;;7.30;44.56;101047.38;4939666;29;20051;-72
2023/04/05 04:40:49;;;;;;;3.92;2.75;;;;;;;7.36;43.11;101049.13;4955772;29;20733;-71
2023/04/05 04:43:36;;;;;;;4.75;2.90;;;;;;;7.22;44.69;101054.88;4950311;28;20401;-71
2023/04/05 04:46:17;;;;;;;4.47;2.63;;;;;;;7.20;43.43;101050.75;4974368;28;20401;-71
2023/04/05 04:49:04;;;;;;;10.68;3.40;;;;;;;7.38;48.08;101047.00;4939704;29;20039;-92
2023/04/05 04:51:33;;;;;;;21.42;4.43;;;;;;;8.36;46.87;101046.75;4942916;29;20051;-94
2023/04/05 04:54:01;;;;;;;20.02;3.63;;;;;;;9.03;43.70;101052.97;4926631;29;20517;-94
2023/04/05 04:56:29;;;;;;;7.50;2.83;;;;;;;9.29;42.09;101061.41;4926556;29;20512;-93
2023/04/05 04:58:59;;;;;;;3.90;2.58;;;;;;;9.37;39.95;101066.41;4911160;29;20052;-95
2023/04/05 05:01:32;;;;;;;9.20;2.70;;;;;;;9.64;40.72;101057.31;4927081;29;20055;-94
2023/04/05 05:04:03;;;;;;;4.85;2.67;;;;;;;9.85;39.94;101068.41;4926754;29;20054;-96
2023/04/05 05:06:36;;;;;;;5.78;2.60;;;;;;;9.94;40.03;101055.88;4925946;29;20406;-92
2023/04/05 05:09:05;;;;;;;2.67;2.33;;;;;;;9.82;39.50;101066.19;4925346;29;20051;-91
2023/04/05 05:11:39;;;;;;;7.82;3.10;;;;;;;10.16;39.50;101067.78;4924899;29;20055;-93
2023/04/05 05:14:09;;;;;;;4.88;2.50;;;;;;;9.79;38.66;101059.34;4925438;29;20059;-94
2023/04/05 05:16:37;;;;;;;3.28;2.10;;;;;;;9.81;39.80;101070.84;4930260;29;20043;-95
2023/04/05 05:19:05;;;;;;;5.00;2.92;;;;;;;9.67;39.27;101056.81;4933964;28;20054;-94
2023/04/05 05:21:41;;;;;;;3.63;2.45;;;;;;;9.66;39.86;101070.72;4944674;28;20062;-95
2023/04/05 05:24:09;;;;;;;2.88;2.33;;;;;;;9.91;39.99;101067.34;4944813;28;20051;-95
2023/04/05 05:26:37;;;;;;;5.00;2.38;;;;;;;10.10;39.81;101075.13;4945025;28;20051;-96
2023/04/05 05:29:05;;;;;;;4.75;2.55;;;;;;;10.06;39.76;101074.00;4977056;28;20054;-94
2023/04/05 05:31:38;;;;;;;5.38;2.92;;;;;;;10.14;39.66;101070.78;4950778;28;20059;-95
2023/04/05 05:34:05;;;;;;;5.32;2.80;;;;;;;9.98;39.47;101079.97;4958614;29;20041;-79
2023/04/05 05:36:36;;;;;;;3.67;2.70;;;;;;;10.02;39.26;101075.63;4994027;28;20046;-84
2023/04/05 05:39:04;;;;;;;4.13;2.50;;;;;;;9.75;40.07;101065.59;4969655;28;20055;-80
2023/04/05 05:41:33;;;;;;;3.25;2.63;;;;;;;9.80;39.18;101077.41;4984003;28;20047;-93
2023/04/05 05:44:01;;;;;;;3.92;2.78;;;;;;;9.78;38.83;101076.84;4969175;28;20023;-80
2023/04/05 05:46:29;;;;;;;3.88;2.38;;;;;;;9.57;39.25;101078.59;4982032;28;20037;-77
2023/04/05 05:48:57;;;;;;;6.38;2.75;;;;;;;9.73;39.19;101075.97;4965796;28;20031;-93
2023/04/05 05:51:25;;;;;;;4.07;2.40;;;;;;;9.69;39.41;101089.34;4962677;28;20058;-87
2023/04/05 05:53:53;;;;;;;3.22;2.40;;;;;;;9.97;39.41;101089.28;4988109;28;20039;-89
2023/04/05 05:56:20;;;;;;;4.10;3.10;;;;;;;9.72;38.44;101093.47;4950541;28;20493;-78
2023/04/05 05:58:48;;;;;;;6.80;3.10;;;;;;;9.04;39.64;101086.56;4974137;28;20039;-79
2023/04/05 06:01:16;;;;;;;3.83;2.65;;;;;;;8.49;39.91;101087.28;4974506;28;20092;-78
2023/04/05 06:03:44;;;;;;;4.20;2.63;;;;;;;8.24;41.41;101095.94;4974669;28;20043;-78
2023/04/05 06:06:12;;;;;;;4.78;2.28;;;;;;;8.40;40.84;101088.81;4974547;28;20054;-78
2023/04/05 06:08:40;;;;;;;4.78;2.65;;;;;;;8.52;41.13;101096.88;4974733;28;20490;-79
2023/04/05 06:11:16;;;;;;;3.60;2.30;;;;;;;8.82;39.95;101095.59;4973375;28;20049;-79
2023/04/05 06:13:45;;;;;;;4.70;2.45;;;;;;;8.92;40.48;101094.91;4974607;28;20058;-78
2023/04/05 06:16:12;;;;;;;5.75;3.00;;;;;;;8.39;40.76;101093.44;4974401;28;20477;-79
2023/04/05 06:18:40;;;;;;;8.70;2.50;;;;;;;8.46;40.49;101093.25;4974033;28;20050;-81
2023/04/05 06:21:08;;;;;;;5.10;2.40;;;;;;;8.71;40.40;101092.75;4973043;28;20050;-78
2023/04/05 06:23:36;;;;;;;5.82;2.67;;;;;;;9.06;39.59;101093.44;4974178;28;20047;-79
2023/04/05 06:26:04;;;;;;;7.50;2.65;;;;;;;8.74;40.00;101095.00;4972460;28;20049;-79
2023/04/05 06:28:32;;;;;;;5.38;2.25;;;;;;;8.64;40.03;101089.41;4974496;28;20047;-79
2023/04/05 06:31:00;;;;;;;7.95;2.70;;;;;;;8.61;40.85;101098.09;4974261;28;20106;-79
2023/04/05 06:33:28;;;;;;;5.30;2.50;;;;;;;8.55;39.50;101097.19;4974070;28;20047;-79
2023/04/05 06:35:55;;;;;;;8.23;2.65;;;;;;;9.12;39.09;101094.28;4974201;28;20042;-79
2023/04/05 06:38:23;;;;;;;4.03;2.42;;;;;;;8.76;40.99;101093.91;4974156;28;20043;-79
2023/04/05 06:40:51;;;;;;;3.20;2.47;;;;;;;9.35;38.63;101097.78;4956329;28;20061;-79
2023/04/05 06:43:19;;;;;;;2.67;2.00;;;;;;;9.47;39.38;101089.41;4974070;28;20046;-80
2023/04/05 06:45:47;;;;;;;3.95;2.20;;;;;;;8.97;39.33;101101.25;4973770;28;20042;-79
2023/04/05 06:48:15;;;;;;;2.97;2.00;;;;;;;9.45;38.42;101097.06;4973926;28;20053;-78
2023/04/05 06:50:42;;;;;;;5.80;2.30;;;;;;;9.70;38.19;101107.41;4956366;28;20070;-79
2023/04/05 06:53:13;;;;;;;4.50;2.45;;;;;;;9.86;38.68;101102.88;4973760;28;20070;-78
2023/04/05 06:55:41;;;;;;;7.88;2.40;;;;;;;9.83;37.91;101103.41;4956419;28;20047;-78
2023/04/05 06:58:09;;;;;;;4.80;3.33;;;;;;;9.41;38.37;101099.50;4973507;28;20054;-78
2023/04/05 07:00:37;;;;;;;5.20;2.35;;;;;;;9.27;39.34;101099.09;4973453;28;20055;-78
2023/04/05 07:03:05;;;;;;;5.07;2.20;;;;;;;9.76;38.21;101103.63;4973229;28;20053;-79
2023/04/05 07:05:33;;;;;;;5.32;2.17;;;;;;;9.65;38.64;101091.78;4956074;28;20050;-79
2023/04/05 07:08:01;;;;;;;3.20;2.13;;;;;;;10.05;38.70;101088.75;4973303;28;20047;-79
2023/04/05 07:10:29;;;;;;;3.53;2.42;;;;;;;9.87;38.21;101093.56;4973465;28;20046;-79
2023/04/05 07:12:57;;;;;;;4.97;2.45;;;;;;;9.74;39.11;101094.03;4973348;28;20512;-79
2023/04/05 07:15:24;;;;;;;4.85;2.45;;;;;;;9.66;38.87;101104.38;4971948;28;20058;-79
2023/04/05 07:17:52;;;;;;;7.25;2.67;;;;;;;9.48;39.04;101102.03;4972985;28;20055;-79
2023/04/05 07:20:21;;;;;;;3.40;2.00;;;;;;;9.76;39.51;101108.25;4953421;28;20054;-79
2023/04/05 07:22:48;;;;;;;3.35;2.20;;;;;;;9.50;38.91;101106.16;4953217;28;20043;-79
2023/04/05 07:25:16;;;;;;;6.13;3.25;;;;;;;9.39;39.38;101101.66;4964638;28;20108;-79
2023/04/05 07:27:44;;;;;;;4.78;2.55;;;;;;;9.60;40.46;101107.31;4965961;28;20062;-79
2023/04/05 07:30:12;;;;;;;3.90;2.13;;;;;;;9.63;38.88;101112.25;4952066;28;20043;-79
2023/04/05 07:32:41;;;;;;;3.13;2.38;;;;;;;10.08;38.33;101104.66;4952706;29;20058;-79
2023/04/05 07:35:09;;;;;;;4.43;2.50;;;;;;;9.92;38.41;101111.94;4951193;29;20058;-79
2023/04/05 07:37:37;;;;;;;6.25;2.35;;;;;;;10.20;38.63;101108.03;4953265;29;20489;-79
2023/04/05 07:40:06;;;;;;;3.80;2.33;;;;;;;10.39;37.96;101115.78;4977490;28;20046;-79
2023/04/05 07:42:34;;;;;;;7.05;2.28;;;;;;;10.05;38.58;101116.09;4992006;28;20046;-79
2023/04/05 07:45:02;;;;;;;4.07;2.33;;;;;;;10.32;38.33;101109.72;4974399;28;20050;-80
2023/04/05 07:47:33;;;;;;;4.03;2.58;;;;;;;10.56;37.67;101120.28;4991638;28;20054;-79
2023/04/05 07:50:01;;;;;;;4.53;2.47;;;;;;;10.90;36.64;101111.63;4975018;28;20035;-79
2023/04/05 07:52:29;;;;;;;7.22;2.65;;;;;;;10.08;37.58;101121.06;4992061;28;20496;-80
2023/04/05 07:54:57;;;;;;;3.80;2.83;;;;;;;10.74;39.15;101117.06;4992141;28;20408;-79
2023/04/05 07:57:26;;;;;;;4.65;2.50;;;;;;;10.48;37.25;101124.34;4992018;28;20062;-80
2023/04/05 07:59:54;;;;;;;7.90;2.40;;;;;;;10.54;37.40;101127.91;4974977;28;20050;-72
2023/04/05 08:02:22;;;;;;;3.47;2.47;;;;;;;10.06;38.80;101129.53;4965379;28;20050;-70
2023/04/05 08:04:50;;;;;;;7.00;3.20;;;;;;;10.31;38.42;101128.03;4969092;28;20039;-70
2023/04/05 08:07:18;;;;;;;4.97;2.58;;;;;;;9.94;39.23;101132.44;4965407;28;20047;-69
2023/04/05 08:09:46;;;;;;;5.22;2.58;;;;;;;10.24;39.21;101123.88;4976742;28;20049;-68
2023/04/05 08:12:13;;;;;;;2.22;1.83;;;;;;;10.34;38.36;101129.41;4954673;29;20054;-75
2023/04/05 08:14:41;;;;;;;5.82;2.83;;;;;;;11.06;37.63;101128.94;4957034;29;20051;-75
2023/04/05 08:17:10;;;;;;;5.10;2.50;;;;;;;10.28;38.08;101125.84;4941769;28;20058;-76
2023/04/05 08:19:38;;;;;;;3.22;2.30;;;;;;;11.11;38.46;101130.88;4976617;28;20055;-87
2023/04/05 08:22:05;;;;;;;5.32;2.10;;;;;;;10.85;37.88;101131.59;4978646;28;20385;-91
2023/04/05 08:24:33;;;;;;;6.53;2.33;;;;;;;11.02;37.65;101130.56;4940417;29;20047;-87
2023/04/05 08:27:01;;;;;;;3.67;2.83;;;;;;;10.91;38.89;101131.63;4969865;28;20047;-87
2023/04/05 08:29:29;;;;;;;6.20;2.97;;;;;;;11.06;38.17;101128.13;4974374;28;20394;-93
2023/04/05 08:31:57;;;;;;;8.13;2.97;;;;;;;11.13;37.69;101125.94;4946456;28;20050;-93
2023/04/05 08:34:25;;;;;;;6.38;2.42;;;;;;;10.95;37.21;101132.75;4942519;28;20051;-73
2023/04/05 08:36:57;;;;;;;5.00;2.83;;;;;;;11.04;38.68;101130.31;4970150;28;20058;-73
2023/04/05 08:39:25;;;;;;;3.67;2.85;;;;;;;11.02;37.01;101131.41;4956616;29;20143;-73
2023/04/05 08:42:05;;;;;;;7.55;3.25;;;;;;;11.23;36.36;101136.09;4954012;29;20044;-73
2023/04/05 08:44:36;;;;;;;3.30;2.10;;;;;;;11.25;37.33;101126.50;4956455;28;20051;-75
2023/04/05 08:47:04;;;;;;;3.78;2.95;;;;;;;10.77;39.10;101139.50;4995340;28;20057;-77
2023/04/05 08:49:32;;;;;;;7.47;3.40;;;;;;;10.96;37.55;101123.44;4995072;28;20049;-77
2023/04/05 08:52:00;;;;;;;4.88;2.80;;;;;;;10.40;37.65;101131.09;4994740;28;20507;-76
2023/04/05 08:54:28;;;;;;;2.95;2.53;;;;;;;10.82;37.62;101134.06;4995195;28;20038;-75
2023/04/05 08:56:58;;;;;;;4.85;2.97;;;;;;;11.62;37.71;101132.03;4994920;28;20057;-76
2023/04/05 08:59:26;;;;;;;6.43;2.67;;;;;;;11.69;38.20;101130.66;4995135;28;20046;-77
2023/04/05 09:01:55;;;;;;;5.75;3.25;;;;;;;12.35;35.66;101136.41;4995120;28;20488;-76
2023/04/05 09:04:27;;;;;;;5.68;2.63;;;;;;;11.18;35.67;101139.66;4994992;28;20042;-78
2023/04/05 09:06:58;;;;;;;5.80;2.85;;;;;;;11.43;37.04;101135.31;4995104;28;20038;-78
2023/04/05 09:09:31;;;;;;;3.78;2.72;;;;;;;10.94;37.24;101131.91;4995012;28;20511;-77
2023/04/05 09:12:00;;;;;;;6.97;3.28;;;;;;;11.66;36.55;101130.41;4994932;28;20472;-77
2023/04/05 09:14:29;;;;;;;5.35;2.92;;;;;;;11.86;35.73;101131.47;4994812;28;20053;-76
2023/04/05 09:16:58;;;;;;;5.25;3.10;;;;;;;11.76;35.68;101132.31;4994439;28;20046;-77
2023/04/05 09:19:26;;;;;;;3.20;2.88;;;;;;;12.45;35.78;101119.06;4994633;28;20058;-77
2023/04/05 09:21:56;;;;;;;5.97;2.90;;;;;;;12.75;35.78;101121.97;4994729;28;20049;-77
2023/04/05 09:24:35;;;;;;;5.68;2.85;;;;;;;13.65;34.40;101123.94;4994804;28;20042;-77
2023/04/05 09:27:10;;;;;;;4.18;2.85;;;;;;;13.66;33.37;101123.66;4983050;28;20043;-80
2023/04/05 09:29:40;;;;;;;5.15;2.90;;;;;;;14.02;34.73;101124.44;4972247;28;20393;-81
2023/04/05 09:32:10;;;;;;;3.80;2.55;;;;;;;13.57;33.66;101120.69;4975443;28;20054;-82
2023/04/05 09:34:40;;;;;;;3.95;3.03;;;;;;;13.11;36.07;101132.78;4965601;28;20631;-83
2023/04/05 09:37:21;;;;;;;7.60;3.10;;;;;;;13.29;34.69;101120.31;4954735;29;20383;-80
2023/04/05 09:40:00;;;;;;;5.35;3.15;;;;;;;13.28;35.00;101132.41;4956440;29;20080;-83
2023/04/05 09:42:41;;;;;;;3.42;2.90;;;;;;;13.05;35.68;101125.66;4957310;29;20059;-84
2023/04/05 09:45:09;;;;;;;5.35;3.20;;;;;;;13.04;36.11;101122.13;4962974;28;20045;-86
2023/04/05 09:47:55;;;;;;;4.18;3.42;;;;;;;13.40;35.31;101110.06;4957349;28;20484;-82
2023/04/05 09:50:23;;;;;;;7.13;3.58;;;;;;;13.33;34.60;101115.06;4971519;28;20047;-82
2023/04/05 09:53:06;;;;;;;7.50;3.63;;;;;;;12.76;36.00;101107.16;4973795;28;20043;-82
2023/04/05 09:55:36;;;;;;;4.95;3.33;;;;;;;13.47;34.73;101114.44;4972593;28;20402;-81
2023/04/05 09:58:11;;;;;;;6.43;3.38;;;;;;;14.07;33.92;101116.13;4987209;28;20051;-82
2023/04/05 10:00:51;;;;;;;5.50;3.60;;;;;;;14.03;33.52;101112.31;4974840;28;20451;-83
2023/04/05 10:03:29;;;;;;;6.10;3.25;;;;;;;13.97;33.56;101117.88;4974677;28;20313;-83
2023/04/05 10:05:58;;;;;;;4.22;2.80;;;;;;;14.02;34.73;101118.94;4966246;28;20047;-83
2023/04/05 10:08:27;;;;;;;5.68;3.88;;;;;;;13.39;34.18;101105.66;4957409;28;20048;-82
2023/04/05 10:10:55;;;;;;;6.32;3.75;;;;;;;13.50;34.44;101094.63;4973934;28;20043;-82
2023/04/05 10:13:25;;;;;;;4.07;3.40;;;;;;;13.01;35.06;101103.44;4957407;28;20055;-82
2023/04/05 10:15:58;;;;;;;4.22;3.53;;;;;;;13.38;35.91;101095.78;4973900;28;20123;-82
2023/04/05 10:18:38;;;;;;;4.85;3.70;;;;;;;13.52;34.81;101092.41;4974760;28;20046;-82
2023/04/05 10:21:11;;;;;;;4.80;3.47;;;;;;;13.45;34.54;101098.22;4974821;28;20051;-82
2023/04/05 10:23:45;;;;;;;6.78;3.28;;;;;;;13.72;34.63;101093.38;4969332;28;20051;-82
2023/04/05 10:26:35;;;;;;;3.95;3.60;;;;;;;13.65;34.01;101094.50;4938154;29;20043;-84
2023/04/05 10:29:11;;;;;;;4.13;3.42;;;;;;;13.27;34.83;101094.22;4954932;29;20051;-83
2023/04/05 10:31:47;;;;;;;7.65;4.00;;;;;;;12.86;35.69;101087.84;4955164;29;20051;-83
2023/04/05 10:34:39;;;;;;;6.80;3.92;;;;;;;13.41;35.71;101089.69;4955258;29;20533;-83
2023/04/05 10:37:22;;;;;;;5.95;3.40;;;;;;;13.53;34.98;101080.28;4955046;29;20059;-83
2023/04/05 10:39:50;;;;;;;6.72;3.80;;;;;;;13.90;35.23;101078.88;4938307;29;20055;-83
2023/04/05 10:42:26;;;;;;;7.07;4.13;;;;;;;14.09;34.88;101086.41;4955269;29;20058;-84
2023/04/05 10:45:05;;;;;;;4.63;3.90;;;;;;;13.87;34.59;101078.66;4964140;28;20504;-83
2023/04/05 10:47:43;;;;;;;4.90;3.20;;;;;;;14.26;33.83;101074.13;4974327;28;20058;-83
2023/04/05 10:50:20;;;;;;;6.95;3.63;;;;;;;13.78;34.68;101075.72;4956000;28;20047;-83
2023/04/05 10:52:49;;;;;;;5.05;3.47;;;;;;;13.50;34.81;101067.13;4973518;28;20039;-83
2023/04/05 10:55:18;;;;;;;8.50;4.00;;;;;;;13.55;34.86;101073.41;4973133;28;20055;-83
2023/04/05 10:57:48;;;;;;;7.10;4.05;;;;;;;12.97;35.45;101068.59;4974112;28;20047;-82
2023/04/05 11:00:17;;;;;;;7.63;4.10;;;;;;;13.72;35.25;101065.84;4974101;28;20046;-83
2023/04/05 11:02:47;;;;;;;5.30;4.07;;;;;;;14.09;34.90;101064.38;4973215;28;20047;-83
2023/04/05 11:05:30;;;;;;;6.15;4.03;;;;;;;14.24;33.48;101061.44;4969405;28;20520;-83
2023/04/05 11:08:02;;;;;;;5.97;4.15;;;;;;;13.68;34.57;101060.94;4993061;28;20051;-83
2023/04/05 11:10:34;;;;;;;6.10;3.92;;;;;;;13.50;35.24;101067.13;4992034;28;20042;-83
2023/04/05 11:13:03;;;;;;;6.47;3.78;;;;;;;13.35;35.46;101057.88;4993268;28;20050;-83
2023/04/05 11:15:33;;;;;;;6.93;4.28;;;;;;;13.55;35.20;101067.09;4981228;28;20038;-83
2023/04/05 11:18:02;;;;;;;4.95;3.88;;;;;;;13.45;34.05;101065.22;4972747;28;20046;-83
2023/04/05 11:20:47;;;;;;;11.18;5.18;;;;;;;13.67;34.18;101053.78;4970954;28;20405;-83
2023/04/05 11:23:18;;;;;;;9.40;4.85;;;;;;;13.76;34.82;101053.97;4973181;28;20516;-84
2023/04/05 11:26:02;;;;;;;5.07;4.10;;;;;;;13.73;34.74;101042.75;4973213;28;20047;-83
2023/04/05 11:28:36;;;;;;;5.47;3.92;;;;;;;13.70;33.94;101042.19;4954179;29;20071;-84
2023/04/05 11:31:18;;;;;;;8.98;4.65;;;;;;;13.34;34.10;101042.47;4953132;29;20074;-83
2023/04/05 11:33:46;;;;;;;6.43;3.78;;;;;;;14.10;36.83;101038.50;4954106;29;20509;-83
2023/04/05 11:36:31;;;;;;;7.22;4.22;;;;;;;14.60;32.85;101043.66;4954082;29;20054;-83
2023/04/05 11:39:17;;;;;;;6.28;4.28;;;;;;;14.15;34.62;101035.69;4953920;28;20406;-83
2023/04/05 11:41:58;;;;;;;9.02;4.40;;;;;;;14.19;33.59;101031.25;4954634;29;20043;-82
2023/04/05 11:44:27;;;;;;;8.82;4.05;;;;;;;15.12;32.85;101025.59;4941986;28;20455;-82
2023/04/05 11:46:54;;;;;;;6.57;4.25;;;;;;;15.35;32.34;101032.09;4952649;28;20046;-82
2023/04/05 11:49:24;;;;;;;4.40;3.72;;;;;;;15.31;32.10;101020.06;4966332;28;20045;-82